Time;durP1;ratioP1;P1;durP2;ratioP2;P2;SDS_P1;SDS_P2;PMS_P1;PMS_P2;Temp;Humidity;BMP_temperature;BMP_pressure;BME280_temperature;BME280_humidity;BME280_pressure;Samples;Min_cycle;Max_cycle;Signal;HPM_P1;HPM_P2
2024/01/25 00:02:08;;;;;;;;;10.00;8.00;;;;;;;;5069995;28;8863;-80
2024/01/25 00:04:33;;;;;;;;;9.33;8.33;;;;;;;;5067210;28;8824;-81
2024/01/25 00:06:59;;;;;;;;;13.33;8.00;;;;;;;;5070234;28;8839;-81
2024/01/25 00:09:24;;;;;;;;;6.00;5.00;;;;;;;;5101765;27;8832;-81
2024/01/25 00:11:49;;;;;;;;;9.00;7.00;;;;;;;;5067526;28;8839;-80
2024/01/25 00:14:14;;;;;;;;;7.00;4.67;;;;;;;;5068864;28;8824;-80
2024/01/25 00:16:43;;;;;;;;;5.00;5.00;;;;;;;;5066434;28;8858;-80
2024/01/25 00:19:08;;;;;;;;;4.25;2.50;;;;;;;;5102316;27;8794;-80
2024/01/25 00:21:33;;;;;;;;;5.00;3.33;;;;;;;;5069235;28;8840;-81
2024/01/25 00:23:59;;;;;;;;;3.00;3.00;;;;;;;;5066672;28;8822;-81
2024/01/25 00:26:24;;;;;;;;;4.00;2.67;;;;;;;;5065081;28;8835;-81
2024/01/25 00:28:49;;;;;;;;;4.00;2.33;;;;;;;;5098944;28;8847;-82
2024/01/25 00:31:14;;;;;;;;;3.33;2.33;;;;;;;;5066518;28;8883;-82
2024/01/25 00:33:39;;;;;;;;;2.33;2.00;;;;;;;;5068226;28;8915;-81
2024/01/25 00:36:07;;;;;;;;;5.00;3.33;;;;;;;;5070000;28;8849;-83
2024/01/25 00:38:33;;;;;;;;;3.25;2.50;;;;;;;;5061832;28;8965;-81
2024/01/25 00:40:58;;;;;;;;;6.67;4.00;;;;;;;;5070040;28;8960;-81
2024/01/25 00:43:26;;;;;;;;;4.00;2.00;;;;;;;;5067669;28;8990;-83
2024/01/25 00:45:52;;;;;;;;;4.75;2.00;;;;;;;;5068845;28;8827;-81
2024/01/25 00:48:17;;;;;;;;;2.67;2.67;;;;;;;;5070939;28;8819;-79
2024/01/25 00:50:43;;;;;;;;;3.67;3.33;;;;;;;;5067461;28;8978;-82
2024/01/25 00:53:08;;;;;;;;;2.00;2.00;;;;;;;;5071798;28;8903;-82
2024/01/25 00:55:34;;;;;;;;;3.00;3.00;;;;;;;;5065881;28;8851;-82
2024/01/25 00:57:59;;;;;;;;;6.33;2.00;;;;;;;;5067201;28;8847;-83
2024/01/25 01:00:25;;;;;;;;;7.67;3.00;;;;;;;;5069473;28;8820;-83
2024/01/25 01:02:52;;;;;;;;;3.33;2.33;;;;;;;;5068960;28;8808;-81
2024/01/25 01:05:18;;;;;;;;;2.50;2.00;;;;;;;;5064273;28;8803;-82
2024/01/25 01:07:44;;;;;;;;;4.00;2.00;;;;;;;;5098837;28;8901;-82
2024/01/25 01:10:10;;;;;;;;;3.00;1.75;;;;;;;;5074090;28;8856;-81
2024/01/25 01:12:35;;;;;;;;;4.67;3.00;;;;;;;;5064116;28;8998;-82
2024/01/25 01:15:01;;;;;;;;;7.00;4.00;;;;;;;;5068227;28;8844;-81
2024/01/25 01:17:27;;;;;;;;;4.33;1.67;;;;;;;;5104644;28;8852;-81
2024/01/25 01:19:53;;;;;;;;;1.33;1.00;;;;;;;;5065389;28;8833;-81
2024/01/25 01:22:18;;;;;;;;;4.67;1.33;;;;;;;;5071009;28;8842;-81
2024/01/25 01:24:43;;;;;;;;;9.00;4.67;;;;;;;;5062845;28;8814;-81
2024/01/25 01:27:08;;;;;;;;;2.00;2.00;;;;;;;;5101782;27;8941;-80
2024/01/25 01:29:33;;;;;;;;;3.67;1.67;;;;;;;;5067615;28;8820;-81
2024/01/25 01:31:59;;;;;;;;;2.67;1.67;;;;;;;;5066808;28;8858;-81
2024/01/25 01:34:24;;;;;;;;;0.67;0.33;;;;;;;;5068873;28;8867;-80
2024/01/25 01:36:49;;;;;;;;;4.00;1.33;;;;;;;;5064611;28;8853;-80
2024/01/25 01:39:14;;;;;;;;;1.67;1.67;;;;;;;;5099800;28;8847;-81
2024/01/25 01:41:40;;;;;;;;;2.00;2.00;;;;;;;;5067677;28;8875;-81
2024/01/25 01:44:05;;;;;;;;;5.00;3.67;;;;;;;;5067947;28;8808;-81
2024/01/25 01:46:30;;;;;;;;;2.67;1.00;;;;;;;;5071625;28;8951;-81
2024/01/25 01:48:55;;;;;;;;;5.00;2.00;;;;;;;;5066057;28;8858;-80
2024/01/25 01:51:21;;;;;;;;;3.67;1.33;;;;;;;;5068010;28;8872;-80
2024/01/25 01:53:46;;;;;;;;;5.33;1.33;;;;;;;;5064603;28;8860;-80
2024/01/25 01:56:12;;;;;;;;;8.00;3.00;;;;;;;;5065962;28;8827;-80
2024/01/25 01:58:38;;;;;;;;;4.67;4.67;;;;;;;;5066202;28;8854;-81
2024/01/25 02:01:04;;;;;;;;;5.00;3.00;;;;;;;;5068252;28;8778;-82
2024/01/25 02:03:29;;;;;;;;;5.00;3.00;;;;;;;;5069786;28;8863;-81
2024/01/25 02:05:54;;;;;;;;;6.67;1.67;;;;;;;;5066530;28;11577;-82
2024/01/25 02:08:20;;;;;;;;;1.67;1.67;;;;;;;;5068800;28;8824;-80
2024/01/25 02:10:45;;;;;;;;;3.00;2.00;;;;;;;;5070649;28;8953;-81
2024/01/25 02:13:10;;;;;;;;;7.67;4.67;;;;;;;;5088658;28;8874;-79
2024/01/25 02:15:35;;;;;;;;;3.67;3.67;;;;;;;;5067319;28;8946;-79
2024/01/25 02:18:01;;;;;;;;;7.33;3.67;;;;;;;;5066614;28;8887;-82
2024/01/25 02:20:26;;;;;;;;;9.00;6.00;;;;;;;;5068523;28;8832;-80
2024/01/25 02:22:51;;;;;;;;;3.00;2.00;;;;;;;;5068646;28;8938;-78
2024/01/25 02:25:16;;;;;;;;;8.00;4.33;;;;;;;;5063193;28;8881;-81
2024/01/25 02:27:42;;;;;;;;;5.33;3.33;;;;;;;;5067069;28;9498;-80
2024/01/25 02:30:07;;;;;;;;;9.67;5.67;;;;;;;;5057707;28;8815;-81
2024/01/25 02:32:33;;;;;;;;;5.33;4.00;;;;;;;;5061124;28;8846;-81
2024/01/25 02:34:58;;;;;;;;;10.00;8.33;;;;;;;;5064708;28;9388;-81
2024/01/25 02:37:24;;;;;;;;;8.67;5.00;;;;;;;;5063724;28;8848;-80
2024/01/25 02:39:49;;;;;;;;;7.67;4.00;;;;;;;;5095353;28;8838;-80
2024/01/25 02:42:16;;;;;;;;;8.00;4.67;;;;;;;;5066912;28;8826;-80
2024/01/25 02:44:42;;;;;;;;;6.25;4.50;;;;;;;;5064310;28;8816;-81
2024/01/25 02:47:07;;;;;;;;;4.67;4.67;;;;;;;;5061865;28;8844;-81
2024/01/25 02:49:32;;;;;;;;;7.33;5.00;;;;;;;;5066607;28;8857;-79
2024/01/25 02:51:58;;;;;;;;;6.67;5.00;;;;;;;;5061897;28;9609;-79
2024/01/25 02:54:23;;;;;;;;;7.67;4.67;;;;;;;;5074084;28;8820;-81
2024/01/25 02:56:48;;;;;;;;;5.00;3.00;;;;;;;;5062788;28;8898;-82
2024/01/25 02:59:13;;;;;;;;;8.33;3.33;;;;;;;;5099770;28;8832;-80
2024/01/25 03:01:40;;;;;;;;;7.33;5.00;;;;;;;;5105682;27;8926;-80
2024/01/25 03:04:05;;;;;;;;;8.50;3.75;;;;;;;;5068646;28;8898;-81
2024/01/25 03:06:30;;;;;;;;;4.33;3.00;;;;;;;;5070374;28;9787;-80
2024/01/25 03:08:56;;;;;;;;;4.00;4.00;;;;;;;;5068261;28;8839;-82
2024/01/25 03:11:21;;;;;;;;;7.67;3.00;;;;;;;;5070148;28;8820;-81
2024/01/25 03:13:46;;;;;;;;;5.00;4.00;;;;;;;;5106558;28;8852;-79
2024/01/25 03:16:12;;;;;;;;;8.33;3.67;;;;;;;;5069330;28;8831;-83
2024/01/25 03:18:37;;;;;;;;;5.00;4.33;;;;;;;;5060060;28;8843;-81
2024/01/25 03:21:02;;;;;;;;;5.67;5.00;;;;;;;;5069278;28;8844;-82
2024/01/25 03:23:27;;;;;;;;;7.67;5.33;;;;;;;;5071416;28;8848;-80
2024/01/25 03:25:53;;;;;;;;;4.67;3.00;;;;;;;;5068314;28;8850;-80
2024/01/25 03:28:18;;;;;;;;;4.00;4.00;;;;;;;;5068616;28;8827;-80
2024/01/25 03:30:43;;;;;;;;;5.33;4.00;;;;;;;;5068259;28;8931;-79
2024/01/25 03:33:09;;;;;;;;;7.33;2.67;;;;;;;;5064603;28;8973;-80
2024/01/25 03:35:34;;;;;;;;;3.67;1.67;;;;;;;;5068856;28;8844;-80
2024/01/25 03:38:00;;;;;;;;;3.33;2.00;;;;;;;;5064418;28;9021;-80
2024/01/25 03:40:25;;;;;;;;;3.00;2.00;;;;;;;;5065741;28;8843;-80
2024/01/25 03:42:50;;;;;;;;;4.67;1.67;;;;;;;;5069380;28;8923;-79
2024/01/25 03:45:15;;;;;;;;;3.67;2.00;;;;;;;;5069356;28;8818;-80
2024/01/25 03:47:40;;;;;;;;;2.67;1.00;;;;;;;;5071793;28;8828;-80
2024/01/25 03:50:06;;;;;;;;;6.00;3.00;;;;;;;;5062852;28;9562;-81
2024/01/25 03:52:31;;;;;;;;;4.67;2.33;;;;;;;;5067778;28;8839;-80
2024/01/25 03:54:57;;;;;;;;;1.00;1.00;;;;;;;;5072231;28;8836;-79
2024/01/25 03:57:22;;;;;;;;;5.00;3.33;;;;;;;;5069219;28;8915;-80
2024/01/25 03:59:47;;;;;;;;;2.00;2.00;;;;;;;;5067687;28;8866;-81
2024/01/25 04:02:12;;;;;;;;;3.00;2.00;;;;;;;;5069203;28;8816;-81
2024/01/25 04:04:38;;;;;;;;;4.33;3.00;;;;;;;;5068507;28;8853;-81
2024/01/25 04:07:03;;;;;;;;;3.67;3.00;;;;;;;;5070038;28;8886;-80
2024/01/25 04:09:28;;;;;;;;;4.00;3.00;;;;;;;;5062776;28;8992;-81
2024/01/25 04:11:54;;;;;;;;;3.33;3.00;;;;;;;;5061431;28;8920;-81
2024/01/25 04:14:19;;;;;;;;;7.67;4.67;;;;;;;;5066858;28;8817;-80
2024/01/25 04:16:46;;;;;;;;;5.67;4.33;;;;;;;;5061430;28;8816;-78
2024/01/25 04:19:12;;;;;;;;;8.50;7.00;;;;;;;;5070956;28;8782;-80
2024/01/25 04:21:38;;;;;;;;;6.50;5.00;;;;;;;;5069482;28;8824;-80
2024/01/25 04:24:04;;;;;;;;;8.67;5.67;;;;;;;;5071175;28;8897;-80
2024/01/25 04:26:29;;;;;;;;;5.00;4.67;;;;;;;;5067398;28;8818;-81
2024/01/25 04:28:54;;;;;;;;;7.00;5.00;;;;;;;;5063733;28;10741;-80
2024/01/25 04:31:19;;;;;;;;;5.67;5.33;;;;;;;;5071322;28;8820;-81
2024/01/25 04:33:45;;;;;;;;;4.33;3.67;;;;;;;;5066723;28;9998;-80
2024/01/25 04:36:10;;;;;;;;;8.33;3.33;;;;;;;;5065252;28;8833;-79
2024/01/25 04:38:35;;;;;;;;;5.00;4.00;;;;;;;;5067426;28;8857;-80
2024/01/25 04:41:00;;;;;;;;;6.00;3.67;;;;;;;;5072565;28;8804;-80
2024/01/25 04:43:25;;;;;;;;;7.67;4.67;;;;;;;;5058460;28;8810;-79
2024/01/25 04:45:51;;;;;;;;;9.00;7.00;;;;;;;;5066892;28;8899;-80
2024/01/25 04:48:16;;;;;;;;;9.00;6.33;;;;;;;;5065689;28;10102;-78
2024/01/25 04:50:41;;;;;;;;;8.33;5.33;;;;;;;;5066847;28;8863;-80
2024/01/25 04:53:06;;;;;;;;;7.00;4.00;;;;;;;;5064589;28;8882;-80
2024/01/25 04:55:39;;;;;;;;;9.00;7.33;;;;;;;;5066363;28;8966;-81
2024/01/25 04:58:04;;;;;;;;;12.25;8.75;;;;;;;;5068506;28;8804;-79
2024/01/25 05:00:30;;;;;;;;;9.67;7.33;;;;;;;;5064831;28;8828;-79
2024/01/25 05:02:55;;;;;;;;;9.33;9.00;;;;;;;;5069080;28;8824;-79
2024/01/25 05:05:20;;;;;;;;;7.33;4.67;;;;;;;;5066915;28;9005;-80
2024/01/25 05:07:46;;;;;;;;;7.67;5.33;;;;;;;;5067567;28;8859;-80
2024/01/25 05:10:11;;;;;;;;;12.00;8.00;;;;;;;;5067491;28;8823;-80
2024/01/25 05:12:36;;;;;;;;;9.67;7.33;;;;;;;;5089626;28;8945;-80
2024/01/25 05:15:02;;;;;;;;;8.00;7.00;;;;;;;;5066199;28;8913;-80
2024/01/25 05:17:27;;;;;;;;;6.33;6.33;;;;;;;;5102267;27;8827;-80
2024/01/25 05:19:52;;;;;;;;;9.33;9.33;;;;;;;;5068285;28;8839;-79
2024/01/25 05:22:18;;;;;;;;;10.67;8.00;;;;;;;;5061928;28;9091;-80
2024/01/25 05:24:43;;;;;;;;;10.67;7.00;;;;;;;;5070738;28;9018;-81
2024/01/25 05:27:08;;;;;;;;;12.33;10.67;;;;;;;;5067890;28;8839;-79
2024/01/25 05:29:33;;;;;;;;;10.00;8.67;;;;;;;;5068907;28;8832;-81
2024/01/25 05:31:59;;;;;;;;;13.00;12.00;;;;;;;;5054389;28;8927;-81
2024/01/25 05:34:24;;;;;;;;;13.00;8.33;;;;;;;;5087456;27;8831;-75
2024/01/25 05:36:49;;;;;;;;;14.67;11.33;;;;;;;;5068942;28;8905;-77
2024/01/25 05:39:15;;;;;;;;;16.33;11.33;;;;;;;;5067829;28;8880;-79
2024/01/25 05:41:40;;;;;;;;;19.00;15.33;;;;;;;;5071119;28;8828;-80
2024/01/25 05:44:05;;;;;;;;;14.67;14.00;;;;;;;;5074242;28;8850;-80
2024/01/25 05:46:30;;;;;;;;;21.33;19.33;;;;;;;;5068070;28;8816;-79
2024/01/25 05:48:59;;;;;;;;;15.00;12.67;;;;;;;;5070046;28;8823;-82
2024/01/25 05:51:24;;;;;;;;;14.75;12.00;;;;;;;;5099169;28;8951;-78
2024/01/25 05:53:49;;;;;;;;;15.67;12.00;;;;;;;;5066235;28;8974;-79
2024/01/25 05:56:14;;;;;;;;;21.67;15.67;;;;;;;;5066719;28;8843;-79
2024/01/25 05:58:41;;;;;;;;;14.00;13.00;;;;;;;;5065528;28;8832;-80
2024/01/25 06:01:06;;;;;;;;;24.25;16.00;;;;;;;;5059246;28;8802;-78
2024/01/25 06:03:31;;;;;;;;;14.00;12.67;;;;;;;;5070604;28;8818;-80
2024/01/25 06:05:56;;;;;;;;;13.67;12.67;;;;;;;;5096954;27;8816;-77
2024/01/25 06:08:22;;;;;;;;;16.33;9.00;;;;;;;;5058367;28;10045;-80
2024/01/25 06:10:47;;;;;;;;;16.00;13.67;;;;;;;;5065304;28;8847;-78
2024/01/25 06:13:13;;;;;;;;;20.00;14.33;;;;;;;;5061445;28;8913;-77
2024/01/25 06:15:38;;;;;;;;;19.67;16.33;;;;;;;;5064951;28;8847;-77
2024/01/25 06:18:04;;;;;;;;;18.67;12.00;;;;;;;;5095858;28;8965;-79
2024/01/25 06:20:29;;;;;;;;;17.00;14.33;;;;;;;;5064617;28;8860;-78
2024/01/25 06:22:54;;;;;;;;;17.00;16.67;;;;;;;;5065576;28;8872;-78
2024/01/25 06:25:19;;;;;;;;;16.00;16.00;;;;;;;;5065481;28;9666;-78
2024/01/25 06:27:44;;;;;;;;;21.00;17.67;;;;;;;;5067589;28;8856;-77
2024/01/25 06:30:10;;;;;;;;;20.67;18.00;;;;;;;;5065573;28;8909;-77
2024/01/25 06:32:35;;;;;;;;;23.33;19.67;;;;;;;;5068128;28;8816;-77
2024/01/25 06:35:01;;;;;;;;;25.00;19.00;;;;;;;;5066011;28;8952;-75
2024/01/25 06:37:26;;;;;;;;;21.67;17.33;;;;;;;;5066673;28;8962;-81
2024/01/25 06:39:54;;;;;;;;;19.00;17.33;;;;;;;;5068326;28;8844;-83
2024/01/25 06:42:20;;;;;;;;;18.25;18.25;;;;;;;;5072495;28;8835;-82
2024/01/25 06:44:45;;;;;;;;;25.33;18.33;;;;;;;;5076898;28;8812;-83
2024/01/25 06:47:21;;;;;;;;;;;;;;;;;;;;;
2024/01/25 06:49:51;;;;;;;;;21.75;19.00;;;;;;;;5071357;28;36068;-77
2024/01/25 06:52:16;;;;;;;;;19.75;18.50;;;;;;;;5064064;28;8928;-79
2024/01/25 06:54:41;;;;;;;;;21.33;16.00;;;;;;;;5067280;28;8836;-76
2024/01/25 06:57:07;;;;;;;;;19.67;17.00;;;;;;;;5069717;28;9018;-76
2024/01/25 06:59:32;;;;;;;;;16.00;13.67;;;;;;;;5065525;28;8838;-73
2024/01/25 07:01:57;;;;;;;;;22.00;19.00;;;;;;;;5070261;28;8887;-74
2024/01/25 07:04:23;;;;;;;;;24.33;20.67;;;;;;;;5100416;27;8824;-73
2024/01/25 07:06:48;;;;;;;;;19.00;15.67;;;;;;;;5067575;28;8962;-72
2024/01/25 07:09:13;;;;;;;;;24.67;20.33;;;;;;;;5067978;28;8840;-73
2024/01/25 07:11:45;;;;;;;;;23.00;17.33;;;;;;;;5067611;28;9586;-80
2024/01/25 07:14:10;;;;;;;;;24.00;20.00;;;;;;;;5064069;28;8836;-74
2024/01/25 07:16:35;;;;;;;;;22.33;20.00;;;;;;;;5066705;28;8836;-75
2024/01/25 07:19:00;;;;;;;;;68.50;50.50;;;;;;;;5070047;28;8872;-76
2024/01/25 07:21:25;;;;;;;;;37.33;32.33;;;;;;;;5068588;28;8854;-75
2024/01/25 07:23:51;;;;;;;;;32.67;25.67;;;;;;;;5068011;28;8860;-75
2024/01/25 07:26:17;;;;;;;;;26.67;20.00;;;;;;;;5053966;28;8880;-75
2024/01/25 07:28:42;;;;;;;;;30.00;23.00;;;;;;;;5069205;28;8812;-75
2024/01/25 07:31:07;;;;;;;;;24.33;22.00;;;;;;;;5071466;28;11525;-74
2024/01/25 07:33:32;;;;;;;;;30.67;19.67;;;;;;;;5078867;28;8832;-75
2024/01/25 07:35:58;;;;;;;;;31.50;26.00;;;;;;;;5071394;28;8835;-72
2024/01/25 07:38:24;;;;;;;;;45.67;34.33;;;;;;;;5066952;28;8846;-75
2024/01/25 07:40:49;;;;;;;;;27.67;23.33;;;;;;;;5069296;28;8972;-73
2024/01/25 07:43:14;;;;;;;;;27.00;20.67;;;;;;;;5064532;28;8930;-74
2024/01/25 07:45:40;;;;;;;;;21.00;16.67;;;;;;;;5069109;28;8836;-74
2024/01/25 07:48:05;;;;;;;;;19.67;18.00;;;;;;;;5071262;28;8835;-73
2024/01/25 07:50:30;;;;;;;;;20.67;16.67;;;;;;;;5069479;28;8843;-74
2024/01/25 07:52:55;;;;;;;;;23.00;17.33;;;;;;;;5065970;28;8819;-73
2024/01/25 07:55:21;;;;;;;;;23.00;17.00;;;;;;;;5067176;28;8842;-73
2024/01/25 07:57:46;;;;;;;;;23.33;19.67;;;;;;;;5068110;28;8836;-73
2024/01/25 08:00:11;;;;;;;;;18.00;15.67;;;;;;;;5069202;28;8812;-75
2024/01/25 08:02:39;;;;;;;;;13.33;12.33;;;;;;;;5067692;28;8832;-73
2024/01/25 08:05:04;;;;;;;;;20.50;17.25;;;;;;;;5070369;28;8816;-74
2024/01/25 08:07:29;;;;;;;;;20.00;17.67;;;;;;;;5072921;28;8906;-73
2024/01/25 08:09:57;;;;;;;;;22.33;20.00;;;;;;;;5063372;28;8848;-77
2024/01/25 08:12:23;;;;;;;;;19.75;15.50;;;;;;;;5068256;28;9528;-76
2024/01/25 08:14:48;;;;;;;;;19.00;15.33;;;;;;;;5067371;28;9686;-77
2024/01/25 08:17:14;;;;;;;;;19.67;16.67;;;;;;;;5065484;28;8861;-77
2024/01/25 08:19:39;;;;;;;;;15.00;14.00;;;;;;;;5099249;28;9435;-76
2024/01/25 08:22:04;;;;;;;;;19.33;15.67;;;;;;;;5067435;28;8832;-75
2024/01/25 08:24:29;;;;;;;;;19.00;15.33;;;;;;;;5067516;28;9403;-77
2024/01/25 08:26:55;;;;;;;;;16.00;14.00;;;;;;;;5069298;28;8836;-76
2024/01/25 08:29:21;;;;;;;;;17.33;14.00;;;;;;;;5065214;28;8851;-76
2024/01/25 08:31:46;;;;;;;;;16.25;13.75;;;;;;;;5065589;28;8865;-77
2024/01/25 08:34:12;;;;;;;;;16.00;15.00;;;;;;;;5069509;28;8796;-77
2024/01/25 08:36:37;;;;;;;;;16.00;13.00;;;;;;;;5067803;28;8812;-77
2024/01/25 08:39:04;;;;;;;;;14.00;14.00;;;;;;;;5068894;28;8951;-76
2024/01/25 08:41:29;;;;;;;;;19.00;13.50;;;;;;;;5071941;28;8967;-76
2024/01/25 08:43:54;;;;;;;;;18.33;16.33;;;;;;;;5067387;28;8859;-80
2024/01/25 08:46:20;;;;;;;;;20.67;16.33;;;;;;;;5070291;28;8860;-79
2024/01/25 08:48:45;;;;;;;;;23.00;16.00;;;;;;;;5101354;27;8832;-78
2024/01/25 08:51:10;;;;;;;;;19.33;15.00;;;;;;;;5069219;28;8855;-78
2024/01/25 08:53:36;;;;;;;;;17.33;14.67;;;;;;;;5069329;28;8835;-78
2024/01/25 08:56:04;;;;;;;;;17.67;13.67;;;;;;;;5067950;28;8960;-77
2024/01/25 08:58:32;;;;;;;;;14.75;12.25;;;;;;;;5068354;28;8832;-79
2024/01/25 09:00:57;;;;;;;;;17.75;16.50;;;;;;;;5066288;28;8824;-74
2024/01/25 09:03:23;;;;;;;;;12.00;10.67;;;;;;;;5067121;28;8858;-73
2024/01/25 09:05:48;;;;;;;;;17.33;12.33;;;;;;;;5067588;28;8816;-74
2024/01/25 09:08:14;;;;;;;;;16.00;10.33;;;;;;;;5064193;28;8831;-73
2024/01/25 09:10:40;;;;;;;;;11.00;8.33;;;;;;;;5066057;28;8839;-72
2024/01/25 09:13:05;;;;;;;;;12.50;9.25;;;;;;;;5065619;28;8801;-74
2024/01/25 09:15:30;;;;;;;;;9.67;7.00;;;;;;;;5067545;28;8830;-75
2024/01/25 09:17:55;;;;;;;;;10.67;8.00;;;;;;;;5065137;28;8856;-74
2024/01/25 09:20:21;;;;;;;;;8.00;8.00;;;;;;;;5067003;28;8903;-73
2024/01/25 09:22:46;;;;;;;;;5.00;5.00;;;;;;;;5060426;28;8816;-73
2024/01/25 09:25:11;;;;;;;;;11.00;8.67;;;;;;;;5066682;28;8842;-78
2024/01/25 09:27:38;;;;;;;;;9.33;6.67;;;;;;;;5066205;28;8828;-73
2024/01/25 09:30:09;;;;;;;;;9.25;6.50;;;;;;;;5057302;28;8755;-81
2024/01/25 09:32:35;;;;;;;;;6.75;6.75;;;;;;;;5065904;28;8796;-71
2024/01/25 09:35:00;;;;;;;;;11.33;6.33;;;;;;;;5065903;28;8848;-77
2024/01/25 09:37:25;;;;;;;;;8.67;7.00;;;;;;;;5067096;28;8931;-78
2024/01/25 09:39:53;;;;;;;;;11.33;9.00;;;;;;;;5068214;28;8815;-78
2024/01/25 09:42:19;;;;;;;;;9.25;9.00;;;;;;;;5067624;28;8804;-76
2024/01/25 09:44:44;;;;;;;;;11.00;8.67;;;;;;;;5067547;28;8872;-77
2024/01/25 09:47:10;;;;;;;;;15.33;9.33;;;;;;;;5067943;28;8902;-78
2024/01/25 09:49:35;;;;;;;;;6.00;6.00;;;;;;;;5067653;28;8835;-76
2024/01/25 09:52:04;;;;;;;;;9.67;7.67;;;;;;;;5069032;28;9245;-77
2024/01/25 09:54:33;;;;;;;;;7.00;6.00;;;;;;;;5097552;28;8813;-76
2024/01/25 09:56:59;;;;;;;;;8.75;6.25;;;;;;;;5066848;28;8754;-75
2024/01/25 09:59:24;;;;;;;;;8.00;8.00;;;;;;;;5068318;28;8823;-76
2024/01/25 10:01:50;;;;;;;;;7.33;7.00;;;;;;;;5068676;28;8827;-78
2024/01/25 10:04:19;;;;;;;;;8.00;6.33;;;;;;;;5057924;28;8844;-78
2024/01/25 10:06:44;;;;;;;;;12.50;7.75;;;;;;;;5100360;27;8809;-77
2024/01/25 10:09:10;;;;;;;;;12.33;9.67;;;;;;;;5101940;27;8849;-78
2024/01/25 10:11:35;;;;;;;;;9.33;3.67;;;;;;;;5059802;28;8889;-77
2024/01/25 10:14:01;;;;;;;;;9.00;6.00;;;;;;;;5060880;28;8863;-78
2024/01/25 10:16:26;;;;;;;;;6.33;5.00;;;;;;;;5065841;28;8810;-78
2024/01/25 10:18:52;;;;;;;;;7.33;7.33;;;;;;;;5065219;28;9018;-79
2024/01/25 10:21:17;;;;;;;;;10.33;5.33;;;;;;;;5066873;28;8859;-80
2024/01/25 10:23:47;;;;;;;;;7.33;5.00;;;;;;;;5067815;28;8849;-78
2024/01/25 10:26:12;;;;;;;;;10.00;7.75;;;;;;;;5068423;28;8804;-80
2024/01/25 10:28:37;;;;;;;;;11.67;11.67;;;;;;;;5064655;28;8844;-79
2024/01/25 10:31:07;;;;;;;;;11.67;9.00;;;;;;;;5067580;28;8809;-77
2024/01/25 10:33:33;;;;;;;;;9.25;8.75;;;;;;;;5068139;28;8825;-79
2024/01/25 10:36:04;;;;;;;;;9.00;8.25;;;;;;;;5067438;28;8870;-79
2024/01/25 10:38:34;;;;;;;;;9.25;9.00;;;;;;;;5066683;28;8833;-78
2024/01/25 10:41:01;;;;;;;;;10.75;10.25;;;;;;;;5072064;28;8806;-78
2024/01/25 10:43:26;;;;;;;;;12.00;8.00;;;;;;;;5068074;28;8799;-76
2024/01/25 10:45:55;;;;;;;;;9.33;8.33;;;;;;;;5064504;28;8895;-78
2024/01/25 10:48:21;;;;;;;;;12.50;8.50;;;;;;;;5067296;28;8858;-77
2024/01/25 10:50:49;;;;;;;;;9.33;9.33;;;;;;;;5064293;28;8942;-79
2024/01/25 10:53:17;;;;;;;;;6.75;6.75;;;;;;;;5059023;28;8801;-77
2024/01/25 10:55:43;;;;;;;;;9.25;8.25;;;;;;;;5065201;28;8790;-81
2024/01/25 10:58:09;;;;;;;;;10.67;10.00;;;;;;;;5068221;28;8841;-81
2024/01/25 11:00:34;;;;;;;;;10.00;9.00;;;;;;;;5068379;28;8857;-81
2024/01/25 11:03:01;;;;;;;;;8.33;6.33;;;;;;;;5073133;28;9231;-85
2024/01/25 11:05:26;;;;;;;;;9.25;6.75;;;;;;;;5066385;28;8801;-83
2024/01/25 11:07:51;;;;;;;;;8.00;7.00;;;;;;;;5070814;28;8953;-82
2024/01/25 11:10:20;;;;;;;;;9.00;8.33;;;;;;;;5069430;28;8821;-82
2024/01/25 11:12:50;;;;;;;;;9.25;6.75;;;;;;;;5067172;28;8824;-83
2024/01/25 11:15:22;;;;;;;;;11.25;8.50;;;;;;;;5104043;28;8823;-83
2024/01/25 11:17:52;;;;;;;;;9.50;8.00;;;;;;;;5066426;28;8828;-77
2024/01/25 11:20:21;;;;;;;;;7.00;7.00;;;;;;;;5090519;28;8810;-83
2024/01/25 11:22:46;;;;;;;;;4.00;3.50;;;;;;;;5078473;28;8880;-82
2024/01/25 11:25:20;;;;;;;;;12.67;6.67;;;;;;;;5066925;28;8923;-79
2024/01/25 11:27:51;;;;;;;;;4.00;4.00;;;;;;;;5067300;27;8904;-83
2024/01/25 11:30:20;;;;;;;;;3.00;3.00;;;;;;;;5059768;28;10114;-79
2024/01/25 11:32:54;;;;;;;;;5.50;5.50;;;;;;;;5069720;28;8834;-77
2024/01/25 11:35:26;;;;;;;;;6.50;4.50;;;;;;;;5068918;28;8827;-77
2024/01/25 11:38:09;;;;;;;;;5.75;5.50;;;;;;;;5062878;28;8824;-83
2024/01/25 11:40:35;;;;;;;;;6.75;6.25;;;;;;;;5072199;28;8816;-83
2024/01/25 11:43:12;;;;;;;;;5.50;4.75;;;;;;;;5077683;28;8785;-83
2024/01/25 11:45:42;;;;;;;;;7.25;5.25;;;;;;;;5074678;28;8825;-79
2024/01/25 11:48:08;;;;;;;;;9.00;5.75;;;;;;;;5073262;28;9463;-83
2024/01/25 11:50:36;;;;;;;;;6.00;5.67;;;;;;;;5073483;28;8845;-82
2024/01/25 11:53:05;;;;;;;;;6.75;4.75;;;;;;;;5066302;28;8834;-81
2024/01/25 11:55:30;;;;;;;;;5.25;5.25;;;;;;;;5075652;28;8769;-82
2024/01/25 11:57:56;;;;;;;;;5.67;4.00;;;;;;;;5073778;28;8835;-77
2024/01/25 12:00:23;;;;;;;;;6.67;4.67;;;;;;;;5074016;28;8913;-82
2024/01/25 12:02:53;;;;;;;;;3.75;3.75;;;;;;;;5059041;28;8823;-78
2024/01/25 12:05:22;;;;;;;;;5.75;4.50;;;;;;;;5052109;28;8842;-77
2024/01/25 12:07:51;;;;;;;;;5.75;4.75;;;;;;;;5059334;28;8834;-77
2024/01/25 12:10:17;;;;;;;;;4.00;4.00;;;;;;;;5055903;28;8950;-76
2024/01/25 12:12:42;;;;;;;;;4.75;3.75;;;;;;;;5055788;28;8760;-80
2024/01/25 12:15:11;;;;;;;;;6.33;4.33;;;;;;;;5065887;28;8836;-82
2024/01/25 12:17:38;;;;;;;;;6.25;4.75;;;;;;;;5066888;28;8839;-78
2024/01/25 12:20:03;;;;;;;;;6.25;5.75;;;;;;;;5068824;28;8800;-79
2024/01/25 12:22:29;;;;;;;;;6.67;3.33;;;;;;;;5069630;28;8826;-81
2024/01/25 12:24:55;;;;;;;;;4.00;4.00;;;;;;;;5068928;28;8815;-80
2024/01/25 12:27:22;;;;;;;;;5.67;4.00;;;;;;;;5069420;28;11178;-80
2024/01/25 12:29:47;;;;;;;;;7.50;4.25;;;;;;;;5066259;28;8809;-82
2024/01/25 12:32:13;;;;;;;;;5.33;5.33;;;;;;;;5069455;28;8858;-82
2024/01/25 12:34:41;;;;;;;;;6.50;5.00;;;;;;;;5071199;28;8753;-84
2024/01/25 12:37:06;;;;;;;;;5.75;4.50;;;;;;;;5062371;28;8795;-81
2024/01/25 12:39:31;;;;;;;;;4.00;4.00;;;;;;;;5071624;28;8833;-83
2024/01/25 12:41:56;;;;;;;;;4.00;4.00;;;;;;;;5068912;28;8828;-82
2024/01/25 12:44:21;;;;;;;;;3.67;3.67;;;;;;;;5058794;28;8843;-82
2024/01/25 12:46:47;;;;;;;;;6.33;4.33;;;;;;;;5066175;28;8854;-82
2024/01/25 12:49:12;;;;;;;;;4.00;3.00;;;;;;;;5098156;27;8828;-81
2024/01/25 12:51:37;;;;;;;;;3.00;2.00;;;;;;;;5070684;28;8875;-79
2024/01/25 12:54:03;;;;;;;;;4.25;3.25;;;;;;;;5060555;28;8847;-81
2024/01/25 12:56:28;;;;;;;;;3.33;2.00;;;;;;;;5069922;28;8812;-82
2024/01/25 12:58:53;;;;;;;;;2.33;2.33;;;;;;;;5070607;28;8895;-78
2024/01/25 13:01:19;;;;;;;;;2.00;2.00;;;;;;;;5065087;28;8909;-77
2024/01/25 13:03:46;;;;;;;;;2.00;1.00;;;;;;;;5099622;28;8824;-73
2024/01/25 13:06:12;;;;;;;;;4.40;1.60;;;;;;;;5066921;28;8867;-77
2024/01/25 13:08:37;;;;;;;;;3.67;2.33;;;;;;;;5069725;28;8833;-78
2024/01/25 13:11:02;;;;;;;;;2.00;2.00;;;;;;;;5068046;28;8828;-75
2024/01/25 13:13:28;;;;;;;;;2.00;2.00;;;;;;;;5068516;28;8877;-76
2024/01/25 13:15:53;;;;;;;;;3.00;3.00;;;;;;;;5066588;28;8847;-76
2024/01/25 13:18:18;;;;;;;;;2.33;2.33;;;;;;;;5065827;28;8874;-77
2024/01/25 13:20:43;;;;;;;;;1.00;1.00;;;;;;;;5066119;28;8822;-77
2024/01/25 13:23:09;;;;;;;;;2.00;2.00;;;;;;;;5067771;28;9419;-76
2024/01/25 13:25:34;;;;;;;;;5.33;3.67;;;;;;;;5067406;28;8830;-76
2024/01/25 13:27:59;;;;;;;;;4.33;3.67;;;;;;;;5064848;28;8840;-76
2024/01/25 13:30:24;;;;;;;;;2.67;2.67;;;;;;;;5067533;28;8826;-76
2024/01/25 13:32:49;;;;;;;;;4.00;3.00;;;;;;;;5068461;28;8864;-76
2024/01/25 13:35:15;;;;;;;;;3.67;2.33;;;;;;;;5066388;28;8878;-76
2024/01/25 13:37:40;;;;;;;;;4.00;2.75;;;;;;;;5066958;28;8840;-77
2024/01/25 13:40:05;;;;;;;;;1.50;1.50;;;;;;;;5071200;28;8832;-80
2024/01/25 13:42:31;;;;;;;;;2.00;2.00;;;;;;;;5067386;28;8958;-78
2024/01/25 13:44:56;;;;;;;;;2.33;2.33;;;;;;;;5052546;28;9190;-80
2024/01/25 13:47:22;;;;;;;;;1.00;1.00;;;;;;;;5068019;28;8868;-79
2024/01/25 13:49:47;;;;;;;;;1.50;1.50;;;;;;;;5066730;28;8929;-79
2024/01/25 13:52:17;;;;;;;;;3.00;1.00;;;;;;;;5068832;28;8921;-79
2024/01/25 13:54:42;;;;;;;;;2.60;2.40;;;;;;;;5069887;28;8782;-80
2024/01/25 13:57:08;;;;;;;;;1.67;1.67;;;;;;;;5062157;28;8836;-81
2024/01/25 13:59:33;;;;;;;;;3.00;1.67;;;;;;;;5059402;28;8920;-79
2024/01/25 14:01:59;;;;;;;;;4.67;3.00;;;;;;;;5057541;28;8807;-81
2024/01/25 14:04:24;;;;;;;;;5.25;3.00;;;;;;;;5067097;28;8759;-81
2024/01/25 14:06:50;;;;;;;;;2.00;1.00;;;;;;;;5069500;28;8808;-78
2024/01/25 14:09:16;;;;;;;;;3.00;1.00;;;;;;;;5068039;28;8816;-76
2024/01/25 14:11:41;;;;;;;;;2.67;2.00;;;;;;;;5067084;28;8804;-75
2024/01/25 14:14:07;;;;;;;;;3.33;3.00;;;;;;;;5067677;28;8807;-75
2024/01/25 14:16:32;;;;;;;;;3.00;2.00;;;;;;;;5066295;28;8825;-75
2024/01/25 14:18:58;;;;;;;;;1.33;1.00;;;;;;;;5065710;28;8853;-74
2024/01/25 14:21:23;;;;;;;;;2.80;1.60;;;;;;;;5067466;28;8812;-78
2024/01/25 14:23:49;;;;;;;;;4.00;3.00;;;;;;;;5067476;28;8935;-72
2024/01/25 14:26:14;;;;;;;;;2.33;2.33;;;;;;;;5066996;28;8817;-71
2024/01/25 14:28:39;;;;;;;;;1.67;1.33;;;;;;;;5055585;28;8881;-71
2024/01/25 14:31:04;;;;;;;;;3.00;2.67;;;;;;;;5067060;28;8882;-72
2024/01/25 14:33:29;;;;;;;;;1.00;1.00;;;;;;;;5067211;28;8822;-76
2024/01/25 14:35:55;;;;;;;;;3.00;1.33;;;;;;;;5066379;28;8844;-75
2024/01/25 14:38:20;;;;;;;;;4.00;2.00;;;;;;;;5070638;28;8833;-77
2024/01/25 14:40:45;;;;;;;;;1.00;1.00;;;;;;;;5068683;28;8852;-76
2024/01/25 14:43:11;;;;;;;;;2.33;1.33;;;;;;;;5062117;28;8901;-78